sensor_id;sensor_type;location;lat;lon;timestamp;temperature;humidity
25438;DHT22;13364;49.084;9.978;2024-01-15T06:04:53;-2.20;100.00
25438;DHT22;13364;49.084;9.978;2024-01-15T06:07:22;-2.20;100.00
25438;DHT22;13364;49.084;9.978;2024-01-15T06:09:49;-2.20;100.00
25438;DHT22;13364;49.084;9.978;2024-01-15T06:12:17;-2.20;100.00
25438;DHT22;13364;49.084;9.978;2024-01-15T06:14:44;-2.20;100.00
25438;DHT22;13364;49.084;9.978;2024-01-15T06:17:11;-2.20;100.00
25438;DHT22;13364;49.084;9.978;2024-01-15T06:19:39;-2.20;100.00
25438;DHT22;13364;49.084;9.978;2024-01-15T06:22:06;-2.20;100.00
25438;DHT22;13364;49.084;9.978;2024-01-15T06:24:33;-2.20;100.00
25438;DHT22;13364;49.084;9.978;2024-01-15T06:27:00;-2.20;100.00
25438;DHT22;13364;49.084;9.978;2024-01-15T06:29:28;-2.10;100.00
25438;DHT22;13364;49.084;9.978;2024-01-15T06:31:55;-2.10;100.00
25438;DHT22;13364;49.084;9.978;2024-01-15T06:34:22;-2.10;100.00
25438;DHT22;13364;49.084;9.978;2024-01-15T06:36:49;-2.00;100.00
25438;DHT22;13364;49.084;9.978;2024-01-15T06:39:16;-1.90;100.00
25438;DHT22;13364;49.084;9.978;2024-01-15T06:41:43;-1.90;100.00
25438;DHT22;13364;49.084;9.978;2024-01-15T06:44:11;-1.90;100.00
25438;DHT22;13364;49.084;9.978;2024-01-15T06:46:44;-1.90;100.00
25438;DHT22;13364;49.084;9.978;2024-01-15T06:49:11;-2.00;100.00
25438;DHT22;13364;49.084;9.978;2024-01-15T06:51:39;-2.00;100.00
25438;DHT22;13364;49.084;9.978;2024-01-15T06:54:06;-2.00;100.00
25438;DHT22;13364;49.084;9.978;2024-01-15T06:56:33;-2.10;100.00
25438;DHT22;13364;49.084;9.978;2024-01-15T06:59:01;-2.10;100.00
25438;DHT22;13364;49.084;9.978;2024-01-15T07:01:29;-2.10;100.00
25438;DHT22;13364;49.084;9.978;2024-01-15T07:03:56;-2.10;100.00
25438;DHT22;13364;49.084;9.978;2024-01-15T07:06:24;-2.10;100.00
25438;DHT22;13364;49.084;9.978;2024-01-15T07:08:51;-2.00;100.00
25438;DHT22;13364;49.084;9.978;2024-01-15T07:11:18;-2.00;100.00
25438;DHT22;13364;49.084;9.978;2024-01-15T07:13:45;-2.00;100.00
25438;DHT22;13364;49.084;9.978;2024-01-15T07:16:12;-2.00;100.00
25438;DHT22;13364;49.084;9.978;2024-01-15T07:18:51;-2.00;100.00
25438;DHT22;13364;49.084;9.978;2024-01-15T07:21:18;-2.10;100.00
25438;DHT22;13364;49.084;9.978;2024-01-15T07:23:46;-2.10;100.00
25438;DHT22;13364;49.084;9.978;2024-01-15T07:26:12;-2.20;100.00
25438;DHT22;13364;49.084;9.978;2024-01-15T07:28:39;-2.10;100.00
25438;DHT22;13364;49.084;9.978;2024-01-15T07:31:06;-2.10;100.00
25438;DHT22;13364;49.084;9.978;2024-01-15T07:33:33;-2.10;100.00
25438;DHT22;13364;49.084;9.978;2024-01-15T07:36:00;-2.10;100.00
25438;DHT22;13364;49.084;9.978;2024-01-15T07:38:29;-2.10;100.00
25438;DHT22;13364;49.084;9.978;2024-01-15T07:40:56;-2.10;100.00
25438;DHT22;13364;49.084;9.978;2024-01-15T07:43:23;-2.10;100.00
25438;DHT22;13364;49.084;9.978;2024-01-15T07:45:50;-2.10;100.00
25438;DHT22;13364;49.084;9.978;2024-01-15T07:48:17;-2.10;100.00
25438;DHT22;13364;49.084;9.978;2024-01-15T07:50:44;-2.00;100.00
25438;DHT22;13364;49.084;9.978;2024-01-15T07:53:11;-2.00;100.00
25438;DHT22;13364;49.084;9.978;2024-01-15T07:55:38;-1.90;100.00
25438;DHT22;13364;49.084;9.978;2024-01-15T07:58:05;-1.90;100.00
25438;DHT22;13364;49.084;9.978;2024-01-15T08:00:41;-1.90;100.00
25438;DHT22;13364;49.084;9.978;2024-01-15T08:03:08;-2.00;100.00
25438;DHT22;13364;49.084;9.978;2024-01-15T08:05:35;-2.00;100.00
25438;DHT22;13364;49.084;9.978;2024-01-15T08:08:02;-2.00;100.00
25438;DHT22;13364;49.084;9.978;2024-01-15T08:10:29;-2.00;100.00
25438;DHT22;13364;49.084;9.978;2024-01-15T08:12:56;-1.90;100.00
25438;DHT22;13364;49.084;9.978;2024-01-15T08:15:23;-1.90;100.00
25438;DHT22;13364;49.084;9.978;2024-01-15T08:17:53;-1.80;100.00
25438;DHT22;13364;49.084;9.978;2024-01-15T08:20:20;-1.80;100.00
25438;DHT22;13364;49.084;9.978;2024-01-15T08:22:47;-1.80;100.00
25438;DHT22;13364;49.084;9.978;2024-01-15T08:25:14;-1.80;100.00
25438;DHT22;13364;49.084;9.978;2024-01-15T08:27:42;-1.80;100.00
25438;DHT22;13364;49.084;9.978;2024-01-15T08:30:11;-1.70;100.00
25438;DHT22;13364;49.084;9.978;2024-01-15T08:32:39;-1.70;100.00
25438;DHT22;13364;49.084;9.978;2024-01-15T08:35:09;-1.70;100.00
25438;DHT22;13364;49.084;9.978;2024-01-15T08:37:37;-1.70;100.00
25438;DHT22;13364;49.084;9.978;2024-01-15T08:40:04;-1.70;100.00
25438;DHT22;13364;49.084;9.978;2024-01-15T08:42:31;-1.70;100.00
25438;DHT22;13364;49.084;9.978;2024-01-15T08:44:58;-1.80;100.00
25438;DHT22;13364;49.084;9.978;2024-01-15T08:47:25;-1.70;100.00
25438;DHT22;13364;49.084;9.978;2024-01-15T08:49:54;-1.70;100.00
25438;DHT22;13364;49.084;9.978;2024-01-15T08:52:21;-1.60;100.00
25438;DHT22;13364;49.084;9.978;2024-01-15T08:54:48;-1.60;100.00
25438;DHT22;13364;49.084;9.978;2024-01-15T08:57:15;-1.50;100.00
25438;DHT22;13364;49.084;9.978;2024-01-15T08:59:46;-1.50;100.00
25438;DHT22;13364;49.084;9.978;2024-01-15T09:02:34;-1.50;100.00
25438;DHT22;13364;49.084;9.978;2024-01-15T09:05:35;-1.50;100.00
25438;DHT22;13364;49.084;9.978;2024-01-15T09:08:08;-1.50;100.00
25438;DHT22;13364;49.084;9.978;2024-01-15T09:10:43;-1.40;100.00
25438;DHT22;13364;49.084;9.978;2024-01-15T09:13:15;-1.40;100.00
25438;DHT22;13364;49.084;9.978;2024-01-15T09:16:54;-1.30;100.00
25438;DHT22;13364;49.084;9.978;2024-01-15T09:19:26;-1.30;100.00
25438;DHT22;13364;49.084;9.978;2024-01-15T09:21:58;-1.20;100.00
25438;DHT22;13364;49.084;9.978;2024-01-15T09:24:29;-1.10;100.00
25438;DHT22;13364;49.084;9.978;2024-01-15T09:27:02;-1.20;100.00
25438;DHT22;13364;49.084;9.978;2024-01-15T09:29:31;-1.10;100.00
25438;DHT22;13364;49.084;9.978;2024-01-15T09:32:01;-1.10;100.00
25438;DHT22;13364;49.084;9.978;2024-01-15T09:34:37;-1.10;100.00
25438;DHT22;13364;49.084;9.978;2024-01-15T09:37:07;-1.10;100.00
25438;DHT22;13364;49.084;9.978;2024-01-15T09:40:14;-1.10;100.00
25438;DHT22;13364;49.084;9.978;2024-01-15T09:42:47;-1.10;100.00
25438;DHT22;13364;49.084;9.978;2024-01-15T09:45:32;-1.10;100.00
25438;DHT22;13364;49.084;9.978;2024-01-15T09:48:13;-1.10;100.00
25438;DHT22;13364;49.084;9.978;2024-01-15T09:50:42;-1.00;100.00
25438;DHT22;13364;49.084;9.978;2024-01-15T09:53:13;-0.90;100.00
25438;DHT22;13364;49.084;9.978;2024-01-15T09:55:51;-0.90;100.00
25438;DHT22;13364;49.084;9.978;2024-01-15T09:58:25;-0.90;100.00
25438;DHT22;13364;49.084;9.978;2024-01-15T10:00:57;-0.90;100.00
25438;DHT22;13364;49.084;9.978;2024-01-15T10:03:27;-0.90;100.00
25438;DHT22;13364;49.084;9.978;2024-01-15T10:05:58;-0.90;100.00
25438;DHT22;13364;49.084;9.978;2024-01-15T10:08:31;-0.80;100.00
25438;DHT22;13364;49.084;9.978;2024-01-15T10:11:07;-0.80;100.00
25438;DHT22;13364;49.084;9.978;2024-01-15T10:13:34;-0.80;100.00
25438;DHT22;13364;49.084;9.978;2024-01-15T10:16:02;-0.80;100.00
25438;DHT22;13364;49.084;9.978;2024-01-15T10:18:31;-0.80;100.00
25438;DHT22;13364;49.084;9.978;2024-01-15T10:21:07;-0.80;100.00
25438;DHT22;13364;49.084;9.978;2024-01-15T10:23:36;-0.90;100.00
25438;DHT22;13364;49.084;9.978;2024-01-15T10:26:03;-0.80;100.00
25438;DHT22;13364;49.084;9.978;2024-01-15T10:28:30;-0.80;100.00
25438;DHT22;13364;49.084;9.978;2024-01-15T10:30:59;-0.70;100.00
25438;DHT22;13364;49.084;9.978;2024-01-15T10:33:27;-0.70;100.00
25438;DHT22;13364;49.084;9.978;2024-01-15T10:36:00;-0.80;100.00
25438;DHT22;13364;49.084;9.978;2024-01-15T10:38:36;-0.90;100.00
25438;DHT22;13364;49.084;9.978;2024-01-15T10:41:03;-0.80;100.00
25438;DHT22;13364;49.084;9.978;2024-01-15T10:43:31;-0.90;100.00
25438;DHT22;13364;49.084;9.978;2024-01-15T10:45:58;-0.80;100.00
25438;DHT22;13364;49.084;9.978;2024-01-15T10:48:26;-0.80;100.00
25438;DHT22;13364;49.084;9.978;2024-01-15T10:50:57;-0.80;100.00
25438;DHT22;13364;49.084;9.978;2024-01-15T10:53:33;-0.80;100.00
25438;DHT22;13364;49.084;9.978;2024-01-15T10:56:04;-0.70;100.00
25438;DHT22;13364;49.084;9.978;2024-01-15T10:58:33;-0.70;100.00
25438;DHT22;13364;49.084;9.978;2024-01-15T11:01:03;-0.80;100.00
25438;DHT22;13364;49.084;9.978;2024-01-15T11:03:32;-0.90;100.00
25438;DHT22;13364;49.084;9.978;2024-01-15T11:05:59;-0.90;100.00
25438;DHT22;13364;49.084;9.978;2024-01-15T11:08:26;-0.80;100.00
25438;DHT22;13364;49.084;9.978;2024-01-15T11:10:54;-0.80;100.00
25438;DHT22;13364;49.084;9.978;2024-01-15T11:13:23;-0.80;100.00
25438;DHT22;13364;49.084;9.978;2024-01-15T11:16:07;-0.80;100.00
25438;DHT22;13364;49.084;9.978;2024-01-15T11:18:36;-0.80;100.00
25438;DHT22;13364;49.084;9.978;2024-01-15T11:26:37;-0.60;100.00
25438;DHT22;13364;49.084;9.978;2024-01-15T11:29:09;-0.60;100.00
25438;DHT22;13364;49.084;9.978;2024-01-15T11:34:08;-0.60;100.00
25438;DHT22;13364;49.084;9.978;2024-01-15T11:42:03;-0.50;100.00
25438;DHT22;13364;49.084;9.978;2024-01-15T11:44:31;-0.60;100.00
25438;DHT22;13364;49.084;9.978;2024-01-15T11:49:58;-0.50;100.00
25438;DHT22;13364;49.084;9.978;2024-01-15T11:52:25;-0.50;100.00
25438;DHT22;13364;49.084;9.978;2024-01-15T11:54:55;-0.40;100.00
25438;DHT22;13364;49.084;9.978;2024-01-15T12:00:09;-0.40;100.00
25438;DHT22;13364;49.084;9.978;2024-01-15T12:02:43;-0.60;100.00
25438;DHT22;13364;49.084;9.978;2024-01-15T12:05:13;-0.60;100.00
25438;DHT22;13364;49.084;9.978;2024-01-15T12:07:47;-0.60;100.00
25438;DHT22;13364;49.084;9.978;2024-01-15T12:10:18;-0.60;100.00
25438;DHT22;13364;49.084;9.978;2024-01-15T12:15:31;-0.70;100.00
25438;DHT22;13364;49.084;9.978;2024-01-15T12:18:00;-0.70;100.00
25438;DHT22;13364;49.084;9.978;2024-01-15T12:20:31;-0.70;100.00
25438;DHT22;13364;49.084;9.978;2024-01-15T12:23:06;-0.60;100.00
25438;DHT22;13364;49.084;9.978;2024-01-15T12:25:36;-0.60;100.00
25438;DHT22;13364;49.084;9.978;2024-01-15T12:28:04;-0.50;100.00
25438;DHT22;13364;49.084;9.978;2024-01-15T12:30:33;-0.50;100.00
25438;DHT22;13364;49.084;9.978;2024-01-15T12:33:02;-0.50;100.00
25438;DHT22;13364;49.084;9.978;2024-01-15T12:35:30;-0.50;100.00
25438;DHT22;13364;49.084;9.978;2024-01-15T12:37:59;-0.50;100.00
25438;DHT22;13364;49.084;9.978;2024-01-15T12:40:27;-0.40;100.00
25438;DHT22;13364;49.084;9.978;2024-01-15T12:42:54;-0.50;100.00
25438;DHT22;13364;49.084;9.978;2024-01-15T12:45:21;-0.50;100.00
25438;DHT22;13364;49.084;9.978;2024-01-15T12:47:48;-0.50;100.00
25438;DHT22;13364;49.084;9.978;2024-01-15T12:50:17;-0.40;100.00
25438;DHT22;13364;49.084;9.978;2024-01-15T12:52:46;-0.50;100.00
25438;DHT22;13364;49.084;9.978;2024-01-15T12:55:14;-0.50;100.00
25438;DHT22;13364;49.084;9.978;2024-01-15T12:57:42;-0.50;100.00
25438;DHT22;13364;49.084;9.978;2024-01-15T13:00:09;-0.40;100.00
25438;DHT22;13364;49.084;9.978;2024-01-15T13:02:41;-0.40;100.00
25438;DHT22;13364;49.084;9.978;2024-01-15T13:05:10;-0.40;100.00
25438;DHT22;13364;49.084;9.978;2024-01-15T13:07:42;-0.50;100.00
25438;DHT22;13364;49.084;9.978;2024-01-15T13:10:10;-0.40;100.00
25438;DHT22;13364;49.084;9.978;2024-01-15T13:12:38;-0.40;100.00
25438;DHT22;13364;49.084;9.978;2024-01-15T13:15:05;-0.30;100.00
25438;DHT22;13364;49.084;9.978;2024-01-15T13:17:36;-0.40;100.00
25438;DHT22;13364;49.084;9.978;2024-01-15T13:20:05;-0.40;100.00
25438;DHT22;13364;49.084;9.978;2024-01-15T13:22:36;-0.50;100.00
25438;DHT22;13364;49.084;9.978;2024-01-15T13:25:06;-0.40;100.00
25438;DHT22;13364;49.084;9.978;2024-01-15T13:27:34;-0.40;100.00
25438;DHT22;13364;49.084;9.978;2024-01-15T13:30:06;-0.40;100.00
25438;DHT22;13364;49.084;9.978;2024-01-15T13:32:35;-0.40;100.00
25438;DHT22;13364;49.084;9.978;2024-01-15T13:35:02;-0.50;100.00
25438;DHT22;13364;49.084;9.978;2024-01-15T13:37:32;-0.50;100.00
25438;DHT22;13364;49.084;9.978;2024-01-15T13:39:58;-0.60;100.00
25438;DHT22;13364;49.084;9.978;2024-01-15T13:42:25;-0.60;100.00
25438;DHT22;13364;49.084;9.978;2024-01-15T13:44:54;-0.60;100.00
25438;DHT22;13364;49.084;9.978;2024-01-15T13:47:21;-0.60;100.00
25438;DHT22;13364;49.084;9.978;2024-01-15T13:49:47;-0.70;100.00
25438;DHT22;13364;49.084;9.978;2024-01-15T13:52:14;-0.70;100.00
25438;DHT22;13364;49.084;9.978;2024-01-15T13:54:41;-0.70;100.00
25438;DHT22;13364;49.084;9.978;2024-01-15T13:57:17;-0.70;100.00
25438;DHT22;13364;49.084;9.978;2024-01-15T13:59:45;-0.80;100.00
25438;DHT22;13364;49.084;9.978;2024-01-15T14:02:12;-0.80;100.00
25438;DHT22;13364;49.084;9.978;2024-01-15T14:04:42;-0.70;100.00
25438;DHT22;13364;49.084;9.978;2024-01-15T14:07:09;-0.70;100.00
25438;DHT22;13364;49.084;9.978;2024-01-15T14:09:36;-0.70;100.00
25438;DHT22;13364;49.084;9.978;2024-01-15T14:12:05;-0.70;100.00
25438;DHT22;13364;49.084;9.978;2024-01-15T14:14:33;-0.70;100.00
25438;DHT22;13364;49.084;9.978;2024-01-15T14:16:59;-0.70;100.00
25438;DHT22;13364;49.084;9.978;2024-01-15T14:19:26;-0.80;100.00
25438;DHT22;13364;49.084;9.978;2024-01-15T14:21:54;-0.90;100.00
25438;DHT22;13364;49.084;9.978;2024-01-15T14:24:22;-0.90;100.00
25438;DHT22;13364;49.084;9.978;2024-01-15T14:26:49;-0.90;100.00
25438;DHT22;13364;49.084;9.978;2024-01-15T14:29:15;-0.90;100.00
25438;DHT22;13364;49.084;9.978;2024-01-15T14:31:42;-1.00;100.00
25438;DHT22;13364;49.084;9.978;2024-01-15T14:34:09;-1.10;100.00
25438;DHT22;13364;49.084;9.978;2024-01-15T14:36:38;-1.00;100.00
25438;DHT22;13364;49.084;9.978;2024-01-15T14:39:05;-1.00;100.00
25438;DHT22;13364;49.084;9.978;2024-01-15T14:41:32;-0.90;100.00
25438;DHT22;13364;49.084;9.978;2024-01-15T14:43:59;-0.80;100.00
25438;DHT22;13364;49.084;9.978;2024-01-15T14:46:26;-0.90;100.00
25438;DHT22;13364;49.084;9.978;2024-01-15T14:48:54;-0.90;100.00
25438;DHT22;13364;49.084;9.978;2024-01-15T14:51:21;-0.90;100.00
25438;DHT22;13364;49.084;9.978;2024-01-15T14:53:48;-0.90;100.00
25438;DHT22;13364;49.084;9.978;2024-01-15T14:56:14;-0.90;100.00
25438;DHT22;13364;49.084;9.978;2024-01-15T14:58:44;-0.90;100.00
25438;DHT22;13364;49.084;9.978;2024-01-15T15:01:11;-0.90;100.00
25438;DHT22;13364;49.084;9.978;2024-01-15T15:03:39;-0.90;100.00
25438;DHT22;13364;49.084;9.978;2024-01-15T15:06:06;-0.90;100.00
25438;DHT22;13364;49.084;9.978;2024-01-15T15:08:37;-0.90;100.00
25438;DHT22;13364;49.084;9.978;2024-01-15T15:11:04;-0.90;100.00
25438;DHT22;13364;49.084;9.978;2024-01-15T15:13:31;-0.90;100.00
25438;DHT22;13364;49.084;9.978;2024-01-15T15:16:10;-1.00;100.00
25438;DHT22;13364;49.084;9.978;2024-01-15T15:18:38;-1.00;100.00
25438;DHT22;13364;49.084;9.978;2024-01-15T15:21:05;-1.10;100.00
25438;DHT22;13364;49.084;9.978;2024-01-15T15:23:34;-1.10;100.00
25438;DHT22;13364;49.084;9.978;2024-01-15T15:26:01;-1.20;100.00
25438;DHT22;13364;49.084;9.978;2024-01-15T15:28:27;-1.20;100.00
25438;DHT22;13364;49.084;9.978;2024-01-15T15:30:54;-1.10;100.00
25438;DHT22;13364;49.084;9.978;2024-01-15T15:33:21;-1.10;100.00
25438;DHT22;13364;49.084;9.978;2024-01-15T15:35:49;-1.10;100.00
25438;DHT22;13364;49.084;9.978;2024-01-15T15:38:18;-1.20;100.00
25438;DHT22;13364;49.084;9.978;2024-01-15T15:40:44;-1.20;100.00
25438;DHT22;13364;49.084;9.978;2024-01-15T15:43:11;-1.30;100.00
25438;DHT22;13364;49.084;9.978;2024-01-15T15:45:38;-1.30;100.00
25438;DHT22;13364;49.084;9.978;2024-01-15T15:48:05;-1.40;100.00
25438;DHT22;13364;49.084;9.978;2024-01-15T15:50:33;-1.40;100.00
25438;DHT22;13364;49.084;9.978;2024-01-15T15:53:01;-1.50;100.00
25438;DHT22;13364;49.084;9.978;2024-01-15T15:55:30;-1.50;100.00
25438;DHT22;13364;49.084;9.978;2024-01-15T15:57:57;-1.50;100.00
25438;DHT22;13364;49.084;9.978;2024-01-15T16:00:24;-1.50;100.00
25438;DHT22;13364;49.084;9.978;2024-01-15T16:02:50;-1.40;100.00
25438;DHT22;13364;49.084;9.978;2024-01-15T16:05:17;-1.40;100.00
25438;DHT22;13364;49.084;9.978;2024-01-15T16:07:45;-1.40;100.00
25438;DHT22;13364;49.084;9.978;2024-01-15T16:10:12;-1.40;100.00
25438;DHT22;13364;49.084;9.978;2024-01-15T16:12:39;-1.40;100.00
25438;DHT22;13364;49.084;9.978;2024-01-15T16:15:22;-1.40;100.00
25438;DHT22;13364;49.084;9.978;2024-01-15T16:17:50;-1.40;100.00
25438;DHT22;13364;49.084;9.978;2024-01-15T16:20:38;-1.50;100.00
25438;DHT22;13364;49.084;9.978;2024-01-15T16:23:24;-1.50;100.00
25438;DHT22;13364;49.084;9.978;2024-01-15T16:26:11;-1.50;100.00
25438;DHT22;13364;49.084;9.978;2024-01-15T16:28:39;-1.40;100.00
25438;DHT22;13364;49.084;9.978;2024-01-15T16:31:06;-1.40;100.00
25438;DHT22;13364;49.084;9.978;2024-01-15T16:33:36;-1.30;100.00
25438;DHT22;13364;49.084;9.978;2024-01-15T16:36:03;-1.40;100.00
25438;DHT22;13364;49.084;9.978;2024-01-15T16:38:30;-1.40;100.00
25438;DHT22;13364;49.084;9.978;2024-01-15T16:40:57;-1.30;100.00
25438;DHT22;13364;49.084;9.978;2024-01-15T16:43:26;-1.40;100.00
25438;DHT22;13364;49.084;9.978;2024-01-15T16:45:53;-1.40;100.00
25438;DHT22;13364;49.084;9.978;2024-01-15T16:48:20;-1.40;100.00
25438;DHT22;13364;49.084;9.978;2024-01-15T16:50:47;-1.50;100.00
25438;DHT22;13364;49.084;9.978;2024-01-15T16:53:14;-1.50;100.00
25438;DHT22;13364;49.084;9.978;2024-01-15T16:55:40;-1.50;100.00
25438;DHT22;13364;49.084;9.978;2024-01-15T16:58:08;-1.40;100.00
25438;DHT22;13364;49.084;9.978;2024-01-15T17:00:35;-1.50;100.00
25438;DHT22;13364;49.084;9.978;2024-01-15T17:03:02;-1.50;100.00
25438;DHT22;13364;49.084;9.978;2024-01-15T17:05:29;-1.60;100.00
25438;DHT22;13364;49.084;9.978;2024-01-15T17:07:56;-1.60;100.00
25438;DHT22;13364;49.084;9.978;2024-01-15T17:10:23;-1.50;100.00
25438;DHT22;13364;49.084;9.978;2024-01-15T17:12:50;-1.50;100.00
25438;DHT22;13364;49.084;9.978;2024-01-15T17:15:16;-1.50;100.00
25438;DHT22;13364;49.084;9.978;2024-01-15T17:17:43;-1.50;100.00
25438;DHT22;13364;49.084;9.978;2024-01-15T17:20:11;-1.40;100.00
25438;DHT22;13364;49.084;9.978;2024-01-15T17:22:39;-1.40;100.00
25438;DHT22;13364;49.084;9.978;2024-01-15T17:25:06;-1.40;100.00
25438;DHT22;13364;49.084;9.978;2024-01-15T17:27:33;-1.50;100.00
25438;DHT22;13364;49.084;9.978;2024-01-15T17:30:00;-1.60;100.00
25438;DHT22;13364;49.084;9.978;2024-01-15T17:32:27;-1.60;100.00
25438;DHT22;13364;49.084;9.978;2024-01-15T17:34:54;-1.70;100.00
25438;DHT22;13364;49.084;9.978;2024-01-15T17:37:20;-1.70;100.00
25438;DHT22;13364;49.084;9.978;2024-01-15T17:39:47;-1.80;100.00
25438;DHT22;13364;49.084;9.978;2024-01-15T17:42:14;-1.80;100.00
25438;DHT22;13364;49.084;9.978;2024-01-15T17:44:42;-1.80;100.00
25438;DHT22;13364;49.084;9.978;2024-01-15T17:47:09;-1.80;100.00
25438;DHT22;13364;49.084;9.978;2024-01-15T17:49:37;-1.80;100.00
25438;DHT22;13364;49.084;9.978;2024-01-15T17:52:05;-1.80;100.00
25438;DHT22;13364;49.084;9.978;2024-01-15T17:54:32;-1.70;100.00
25438;DHT22;13364;49.084;9.978;2024-01-15T17:56:58;-1.70;100.00
25438;DHT22;13364;49.084;9.978;2024-01-15T17:59:25;-1.60;100.00
25438;DHT22;13364;49.084;9.978;2024-01-15T18:01:52;-1.70;100.00
25438;DHT22;13364;49.084;9.978;2024-01-15T18:04:20;-1.70;100.00
25438;DHT22;13364;49.084;9.978;2024-01-15T18:06:48;-1.70;100.00
25438;DHT22;13364;49.084;9.978;2024-01-15T18:09:16;-1.80;100.00
25438;DHT22;13364;49.084;9.978;2024-01-15T18:11:44;-1.80;100.00
25438;DHT22;13364;49.084;9.978;2024-01-15T18:14:11;-1.80;100.00
25438;DHT22;13364;49.084;9.978;2024-01-15T18:16:39;-1.70;100.00
25438;DHT22;13364;49.084;9.978;2024-01-15T18:19:06;-1.70;100.00
25438;DHT22;13364;49.084;9.978;2024-01-15T18:21:33;-1.70;100.00
25438;DHT22;13364;49.084;9.978;2024-01-15T18:24:00;-1.70;100.00
25438;DHT22;13364;49.084;9.978;2024-01-15T18:26:27;-1.70;100.00
25438;DHT22;13364;49.084;9.978;2024-01-15T18:28:53;-1.70;100.00
25438;DHT22;13364;49.084;9.978;2024-01-15T18:31:21;-1.70;100.00
25438;DHT22;13364;49.084;9.978;2024-01-15T18:33:48;-1.80;100.00
25438;DHT22;13364;49.084;9.978;2024-01-15T18:36:15;-1.80;100.00
25438;DHT22;13364;49.084;9.978;2024-01-15T18:38:44;-1.80;100.00
25438;DHT22;13364;49.084;9.978;2024-01-15T18:41:20;-1.80;100.00
25438;DHT22;13364;49.084;9.978;2024-01-15T18:43:47;-1.80;100.00
25438;DHT22;13364;49.084;9.978;2024-01-15T18:46:14;-1.70;100.00
25438;DHT22;13364;49.084;9.978;2024-01-15T18:48:46;-1.70;100.00
25438;DHT22;13364;49.084;9.978;2024-01-15T18:51:31;-1.70;100.00
25438;DHT22;13364;49.084;9.978;2024-01-15T18:53:58;-1.70;100.00
25438;DHT22;13364;49.084;9.978;2024-01-15T18:56:25;-1.70;100.00
25438;DHT22;13364;49.084;9.978;2024-01-15T18:58:55;-1.60;100.00
25438;DHT22;13364;49.084;9.978;2024-01-15T19:01:28;-1.60;100.00
25438;DHT22;13364;49.084;9.978;2024-01-15T19:04:05;-1.60;100.00
25438;DHT22;13364;49.084;9.978;2024-01-15T19:06:35;-1.60;100.00
25438;DHT22;13364;49.084;9.978;2024-01-15T19:09:09;-1.60;100.00
25438;DHT22;13364;49.084;9.978;2024-01-15T19:11:37;-1.60;100.00
25438;DHT22;13364;49.084;9.978;2024-01-15T19:14:04;-1.60;100.00
25438;DHT22;13364;49.084;9.978;2024-01-15T19:16:32;-1.60;100.00
25438;DHT22;13364;49.084;9.978;2024-01-15T19:18:59;-1.50;100.00
25438;DHT22;13364;49.084;9.978;2024-01-15T19:21:26;-1.50;100.00
25438;DHT22;13364;49.084;9.978;2024-01-15T19:23:56;-1.60;100.00
25438;DHT22;13364;49.084;9.978;2024-01-15T19:26:24;-1.70;100.00
25438;DHT22;13364;49.084;9.978;2024-01-15T19:29:02;-1.60;100.00
25438;DHT22;13364;49.084;9.978;2024-01-15T19:31:39;-1.60;100.00
25438;DHT22;13364;49.084;9.978;2024-01-15T19:34:07;-1.70;100.00
25438;DHT22;13364;49.084;9.978;2024-01-15T19:36:34;-1.70;100.00
25438;DHT22;13364;49.084;9.978;2024-01-15T19:39:00;-1.70;100.00
25438;DHT22;13364;49.084;9.978;2024-01-15T19:41:28;-1.70;100.00
25438;DHT22;13364;49.084;9.978;2024-01-15T19:43:55;-1.70;100.00
25438;DHT22;13364;49.084;9.978;2024-01-15T19:46:21;-1.70;100.00
25438;DHT22;13364;49.084;9.978;2024-01-15T19:48:48;-1.70;100.00
25438;DHT22;13364;49.084;9.978;2024-01-15T19:51:15;-1.80;100.00
25438;DHT22;13364;49.084;9.978;2024-01-15T19:53:42;-1.80;100.00
25438;DHT22;13364;49.084;9.978;2024-01-15T19:56:09;-1.80;100.00
25438;DHT22;13364;49.084;9.978;2024-01-15T19:58:36;-1.80;100.00
25438;DHT22;13364;49.084;9.978;2024-01-15T20:01:04;-1.80;100.00
25438;DHT22;13364;49.084;9.978;2024-01-15T20:03:31;-1.80;100.00
25438;DHT22;13364;49.084;9.978;2024-01-15T20:05:58;-1.80;100.00
25438;DHT22;13364;49.084;9.978;2024-01-15T20:08:25;-1.70;100.00
25438;DHT22;13364;49.084;9.978;2024-01-15T20:10:52;-1.70;100.00
25438;DHT22;13364;49.084;9.978;2024-01-15T20:13:19;-1.80;100.00
25438;DHT22;13364;49.084;9.978;2024-01-15T20:15:46;-1.80;100.00
25438;DHT22;13364;49.084;9.978;2024-01-15T20:18:13;-1.70;100.00
25438;DHT22;13364;49.084;9.978;2024-01-15T20:20:40;-1.70;100.00
25438;DHT22;13364;49.084;9.978;2024-01-15T20:23:08;-1.70;100.00
25438;DHT22;13364;49.084;9.978;2024-01-15T20:25:36;-1.60;100.00
25438;DHT22;13364;49.084;9.978;2024-01-15T20:28:03;-1.60;100.00
25438;DHT22;13364;49.084;9.978;2024-01-15T20:30:32;-1.60;100.00
25438;DHT22;13364;49.084;9.978;2024-01-15T20:33:01;-1.60;100.00
25438;DHT22;13364;49.084;9.978;2024-01-15T20:35:32;-1.60;100.00
25438;DHT22;13364;49.084;9.978;2024-01-15T20:37:58;-1.60;100.00
25438;DHT22;13364;49.084;9.978;2024-01-15T20:40:25;-1.60;100.00
25438;DHT22;13364;49.084;9.978;2024-01-15T20:42:52;-1.60;100.00
25438;DHT22;13364;49.084;9.978;2024-01-15T20:45:19;-1.60;100.00
25438;DHT22;13364;49.084;9.978;2024-01-15T20:47:46;-1.50;100.00
25438;DHT22;13364;49.084;9.978;2024-01-15T20:50:13;-1.50;100.00
25438;DHT22;13364;49.084;9.978;2024-01-15T20:52:41;-1.50;100.00
25438;DHT22;13364;49.084;9.978;2024-01-15T20:55:08;-1.50;100.00
25438;DHT22;13364;49.084;9.978;2024-01-15T20:57:36;-1.50;100.00
25438;DHT22;13364;49.084;9.978;2024-01-15T21:00:04;-1.40;100.00
25438;DHT22;13364;49.084;9.978;2024-01-15T21:02:36;-1.40;100.00
25438;DHT22;13364;49.084;9.978;2024-01-15T21:05:03;-1.40;100.00
25438;DHT22;13364;49.084;9.978;2024-01-15T21:07:31;-1.40;100.00
25438;DHT22;13364;49.084;9.978;2024-01-15T21:09:58;-1.30;100.00
25438;DHT22;13364;49.084;9.978;2024-01-15T21:12:25;-1.30;100.00
25438;DHT22;13364;49.084;9.978;2024-01-15T21:14:52;-1.30;100.00
25438;DHT22;13364;49.084;9.978;2024-01-15T21:17:21;-1.30;100.00
25438;DHT22;13364;49.084;9.978;2024-01-15T21:19:48;-1.30;100.00
25438;DHT22;13364;49.084;9.978;2024-01-15T21:22:15;-1.30;100.00
25438;DHT22;13364;49.084;9.978;2024-01-15T21:24:43;-1.30;100.00
25438;DHT22;13364;49.084;9.978;2024-01-15T21:27:10;-1.20;100.00
25438;DHT22;13364;49.084;9.978;2024-01-15T21:29:36;-1.30;100.00
25438;DHT22;13364;49.084;9.978;2024-01-15T21:32:04;-1.30;100.00
25438;DHT22;13364;49.084;9.978;2024-01-15T21:34:30;-1.40;100.00
25438;DHT22;13364;49.084;9.978;2024-01-15T21:36:57;-1.40;100.00
25438;DHT22;13364;49.084;9.978;2024-01-15T21:39:25;-1.40;100.00
25438;DHT22;13364;49.084;9.978;2024-01-15T21:41:51;-1.40;100.00
25438;DHT22;13364;49.084;9.978;2024-01-15T21:44:18;-1.40;100.00
25438;DHT22;13364;49.084;9.978;2024-01-15T21:46:45;-1.40;100.00
25438;DHT22;13364;49.084;9.978;2024-01-15T21:49:12;-1.40;100.00
25438;DHT22;13364;49.084;9.978;2024-01-15T21:51:38;-1.40;100.00